Terminal Aerodrome Forecast
Issued by NWS

Home | Current Version | Previous Version | Text Only | Print | Product List | Glossary On
Versions: 1 2 3 4 5 6 7 8 9 10 11 12 13 14 15 16 17 18 19 20 21 22 23 24
000
FTUS43 KDDC 222002 AAA
TAFGCK
TAF AMD
KGCK 222002Z 2220/2318 19019G29KT P6SM BKN100
     FM230600 16016G26KT P6SM BKN200 WS020/19050KT
     FM231200 17014G24KT P6SM SCT200=

USA.gov is the U.S. government's official web portal to all federal, state and local government web resources and services.